createdAt,value
2019-02-05T00:02:18.209Z,100768.23
2019-02-05T00:04:49.118Z,100767.89
2019-02-05T00:07:19.738Z,100771.17
2019-02-05T00:09:50.436Z,100759.95
2019-02-05T00:12:21.817Z,100766.56
2019-02-05T00:14:52.368Z,100763.39
2019-02-05T00:17:22.841Z,100759.58
2019-02-05T00:19:53.467Z,100760.52
2019-02-05T00:22:24.575Z,100761.95
2019-02-05T00:24:55.238Z,100758.58
2019-02-05T00:27:25.920Z,100760.54
2019-02-05T00:29:56.899Z,100760.26
2019-02-05T00:32:27.539Z,100760.66
2019-02-05T00:34:58.069Z,100763.61
2019-02-05T00:37:28.563Z,100757.28
2019-02-05T00:39:59.184Z,100762.17
2019-02-05T00:42:29.830Z,100769.12
2019-02-05T00:45:00.423Z,100767.27
2019-02-05T00:47:32.325Z,100767.67
2019-02-05T00:50:03.299Z,100766.33
2019-02-05T00:52:33.799Z,100764.14
2019-02-05T00:55:04.929Z,100767.30
2019-02-05T00:57:35.500Z,100766.16
2019-02-05T01:00:13.352Z,100758.47
2019-02-05T01:02:43.996Z,100760.16
2019-02-05T01:05:15.070Z,100753.59
2019-02-05T01:07:45.898Z,100751.23
2019-02-05T01:10:17.132Z,100745.97
2019-02-05T01:12:47.874Z,100740.81
2019-02-05T01:15:19.472Z,100747.88
2019-02-05T01:17:50.068Z,100749.72
2019-02-05T01:20:20.687Z,100742.63
2019-02-05T01:22:51.511Z,100740.73
2019-02-05T01:25:22.533Z,100726.86
2019-02-05T01:27:53.574Z,100734.56
2019-02-05T01:30:26.807Z,100732.04
2019-02-05T01:32:58.880Z,100723.48
2019-02-05T01:35:29.324Z,100726.42
2019-02-05T01:38:18.913Z,100718.75
2019-02-05T01:40:49.455Z,100712.44
2019-02-05T01:43:20.005Z,100706.41
2019-02-05T01:45:50.610Z,100703.31
2019-02-05T01:48:21.178Z,100701.47
2019-02-05T01:50:51.671Z,100703.16
2019-02-05T01:53:22.345Z,100694.05
2019-02-05T01:55:52.982Z,100683.81
2019-02-05T01:58:23.418Z,100682.18
2019-02-05T02:00:53.911Z,100681.48
2019-02-05T02:03:24.881Z,100673.94
2019-02-05T02:05:55.510Z,100678.22
2019-02-05T02:08:26.130Z,100663.56
2019-02-05T02:10:56.772Z,100661.50
2019-02-05T02:13:27.326Z,100660.45
2019-02-05T02:15:58.039Z,100656.63
2019-02-05T02:18:28.684Z,100656.34
2019-02-05T02:20:59.281Z,100658.52
2019-02-05T02:23:29.961Z,100660.79
2019-02-05T02:26:00.603Z,100662.85
2019-02-05T02:28:31.458Z,100664.82
2019-02-05T02:31:02.562Z,100666.63
2019-02-05T02:33:33.163Z,100661.67
2019-02-05T02:36:04.004Z,100666.70
2019-02-05T02:38:34.634Z,100666.16
2019-02-05T02:41:05.308Z,100664.81
2019-02-05T02:43:35.861Z,100666.08
2019-02-05T02:46:07.021Z,100675.47
2019-02-05T02:48:37.579Z,100675.81
2019-02-05T02:51:08.006Z,100673.12
2019-02-05T02:53:38.685Z,100669.61
2019-02-05T02:56:09.420Z,100666.33
2019-02-05T02:58:39.941Z,100669.56
2019-02-05T03:01:10.657Z,100669.86
2019-02-05T03:03:41.379Z,100657.50
2019-02-05T03:06:15.142Z,100663.05
2019-02-05T03:08:45.689Z,100659.52
2019-02-05T03:11:16.524Z,100660.28
2019-02-05T03:13:47.238Z,100656.59
2019-02-05T03:16:17.711Z,100653.78
2019-02-05T03:18:48.256Z,100649.03
2019-02-05T03:21:18.666Z,100639.05
2019-02-05T03:23:49.261Z,100639.17
2019-02-05T03:26:19.948Z,100638.75
2019-02-05T03:28:50.520Z,100633.51
2019-02-05T03:31:21.081Z,100623.17
2019-02-05T03:33:51.645Z,100616.37
2019-02-05T03:36:22.117Z,100621.83
2019-02-05T03:38:52.671Z,100618.89
2019-02-05T03:41:23.641Z,100610.08
2019-02-05T03:43:54.379Z,100609.11
2019-02-05T03:46:24.979Z,100607.77
2019-02-05T03:48:56.165Z,100616.53
2019-02-05T03:52:04.956Z,100619.31
2019-02-05T03:55:27.268Z,100613.98
2019-02-05T03:58:55.346Z,100615.70
2019-02-05T04:02:13.598Z,100603.91
2019-02-05T04:05:32.439Z,100597.91
2019-02-05T04:08:34.221Z,100597.03
2019-02-05T04:11:48.341Z,100600.94
2019-02-05T04:15:10.832Z,100589.22
2019-02-05T04:18:24.912Z,100590.05
2019-02-05T04:21:45.311Z,100584.67
2019-02-05T04:24:56.119Z,100590.90
2019-02-05T04:28:16.732Z,100581.41
2019-02-05T04:31:15.933Z,100578.80
2019-02-05T04:34:32.557Z,100571.91
2019-02-05T04:37:44.115Z,100571.69
2019-02-05T04:40:53.439Z,100566.50
2019-02-05T04:44:09.877Z,100557.61
2019-02-05T04:47:26.120Z,100564.16
2019-02-05T04:50:39.071Z,100565.77
2019-02-05T04:53:53.145Z,100557.58
2019-02-05T04:56:53.197Z,100556.19
2019-02-05T05:00:07.900Z,100559.05
2019-02-05T05:03:22.651Z,100546.92
2019-02-05T05:06:34.829Z,100545.37
2019-02-05T05:09:36.085Z,100542.94
2019-02-05T05:12:06.704Z,100557.79
2019-02-05T05:14:37.399Z,100557.32
2019-02-05T05:17:08.649Z,100557.73
2019-02-05T05:19:39.266Z,100561.38
2019-02-05T05:22:10.039Z,100556.89
2019-02-05T05:24:40.751Z,100559.83
2019-02-05T05:27:13.032Z,100556.97
2019-02-05T05:29:44.396Z,100552.27
2019-02-05T05:32:15.099Z,100546.55
2019-02-05T05:34:45.651Z,100548.36
2019-02-05T05:37:13.851Z,100550.33
2019-02-05T05:39:44.535Z,100545.56
2019-02-05T05:42:15.428Z,100551.09
2019-02-05T05:44:46.524Z,100552.44
2019-02-05T05:47:17.101Z,100555.42
2019-02-05T05:49:47.935Z,100562.91
2019-02-05T05:52:18.622Z,100555.77
2019-02-05T05:54:49.360Z,100559.00
2019-02-05T05:57:19.957Z,100564.71
2019-02-05T05:59:50.823Z,100575.16
2019-02-05T06:02:21.735Z,100574.11
2019-02-05T06:04:52.542Z,100574.23
2019-02-05T06:07:23.041Z,100570.80
2019-02-05T06:09:53.591Z,100578.14
2019-02-05T06:12:24.252Z,100581.92
2019-02-05T06:14:54.700Z,100578.35
2019-02-05T06:17:25.220Z,100575.58
2019-02-05T06:19:55.898Z,100579.69
2019-02-05T06:22:26.607Z,100579.98
2019-02-05T06:24:57.281Z,100578.09
2019-02-05T06:27:28.212Z,100585.86
2019-02-05T06:29:58.737Z,100586.28
2019-02-05T06:32:29.606Z,100587.41
2019-02-05T06:35:00.492Z,100591.84
2019-02-05T06:37:31.138Z,100588.75
2019-02-05T06:40:01.774Z,100588.95
2019-02-05T06:42:33.045Z,100584.39
2019-02-05T06:45:05.103Z,100589.13
2019-02-05T06:47:35.675Z,100593.75
2019-02-05T06:50:08.282Z,100596.78
2019-02-05T06:52:38.988Z,100595.98
2019-02-05T06:55:10.512Z,100588.55
2019-02-05T06:57:41.251Z,100584.69
2019-02-05T07:00:18.024Z,100585.06
2019-02-05T07:02:49.233Z,100580.65
2019-02-05T07:05:19.986Z,100571.91
2019-02-05T07:07:50.629Z,100580.83
2019-02-05T07:10:22.935Z,100586.26
2019-02-05T07:12:53.796Z,100584.66
2019-02-05T07:15:24.349Z,100587.92
2019-02-05T07:17:54.952Z,100590.46
2019-02-05T07:20:25.557Z,100597.22
2019-02-05T07:22:56.602Z,100594.25
2019-02-05T07:25:27.254Z,100598.14
2019-02-05T07:27:57.852Z,100603.95
2019-02-05T07:30:28.514Z,100602.95
2019-02-05T07:32:59.175Z,100600.22
2019-02-05T07:35:29.797Z,100604.55
2019-02-05T07:38:00.882Z,100607.83
2019-02-05T07:40:31.562Z,100595.28
2019-02-05T07:43:02.437Z,100598.61
2019-02-05T07:45:33.148Z,100591.38
2019-02-05T07:48:03.782Z,100598.89
2019-02-05T07:50:34.431Z,100587.23
2019-02-05T07:53:05.641Z,100588.98
2019-02-05T07:55:36.244Z,100593.83
2019-02-05T07:58:07.095Z,100578.47
2019-02-05T08:00:37.907Z,100588.89
2019-02-05T08:03:08.530Z,100588.64
2019-02-05T08:05:39.116Z,100578.72
2019-02-05T08:08:10.323Z,100582.97
2019-02-05T08:10:40.962Z,100581.41
2019-02-05T08:13:11.690Z,100574.38
2019-02-05T08:15:42.490Z,100569.56
2019-02-05T08:18:13.065Z,100563.63
2019-02-05T08:20:43.799Z,100556.45
2019-02-05T08:23:14.550Z,100549.52
2019-02-05T08:25:45.376Z,100553.44
2019-02-05T08:28:16.137Z,100550.45
2019-02-05T08:30:48.923Z,100548.80
2019-02-05T08:33:19.617Z,100540.23
2019-02-05T08:35:50.160Z,100543.16
2019-02-05T08:38:20.751Z,100548.89
2019-02-05T08:40:51.261Z,100554.39
2019-02-05T08:43:21.804Z,100561.12
2019-02-05T08:45:56.726Z,100553.31
2019-02-05T08:48:24.710Z,100559.19
2019-02-05T08:50:55.395Z,100552.90
2019-02-05T08:53:26.051Z,100557.12
2019-02-05T08:55:56.533Z,100545.07
2019-02-05T08:58:31.050Z,100546.16
2019-02-05T09:00:59.491Z,100552.77
2019-02-05T09:03:30.073Z,100550.28
2019-02-05T09:06:00.656Z,100559.05
2019-02-05T09:08:31.318Z,100555.55
2019-02-05T09:11:01.961Z,100553.77
2019-02-05T09:13:32.640Z,100556.22
2019-02-05T09:16:03.307Z,100555.73
2019-02-05T09:18:34.093Z,100550.41
2019-02-05T09:21:04.919Z,100557.89
2019-02-05T09:23:35.862Z,100558.30
2019-02-05T09:26:06.559Z,100554.80
2019-02-05T09:28:37.110Z,100552.88
2019-02-05T09:31:07.645Z,100549.88
2019-02-05T09:33:38.419Z,100547.54
2019-02-05T09:36:12.555Z,100565.97
2019-02-05T09:38:43.366Z,100569.11
2019-02-05T09:41:13.864Z,100571.05
2019-02-05T09:43:44.718Z,100574.78
2019-02-05T09:46:15.379Z,100590.16
2019-02-05T09:48:45.948Z,100594.77
2019-02-05T09:51:16.464Z,100597.50
2019-02-05T09:53:47.355Z,100590.30
2019-02-05T09:56:17.791Z,100596.23
2019-02-05T09:58:48.140Z,100595.05
2019-02-05T10:01:18.736Z,100596.02
2019-02-05T10:03:49.268Z,100597.80
2019-02-05T10:06:19.801Z,100597.88
2019-02-05T10:08:50.660Z,100595.91
2019-02-05T10:11:21.164Z,100594.66
2019-02-05T10:13:51.480Z,100593.81
2019-02-05T10:16:22.040Z,100603.97
2019-02-05T10:18:52.751Z,100600.13
2019-02-05T10:21:23.212Z,100593.30
2019-02-05T10:23:53.887Z,100593.67
2019-02-05T10:26:24.481Z,100598.17
2019-02-05T10:28:55.037Z,100599.58
2019-02-05T10:31:25.631Z,100593.36
2019-02-05T10:33:56.575Z,100591.75
2019-02-05T10:36:27.172Z,100594.73
2019-02-05T10:38:58.166Z,100584.59
2019-02-05T10:41:28.811Z,100585.94
2019-02-05T10:43:59.346Z,100578.36
2019-02-05T10:46:30.151Z,100579.82
2019-02-05T10:49:03.299Z,100577.82
2019-02-05T10:51:33.028Z,100579.30
2019-02-05T10:54:03.565Z,100569.53
2019-02-05T10:56:34.131Z,100577.68
2019-02-05T10:59:05.211Z,100575.56
2019-02-05T11:01:35.965Z,100568.01
2019-02-05T11:04:06.826Z,100559.36
2019-02-05T11:06:37.619Z,100555.21
2019-02-05T11:09:11.377Z,100556.06
2019-02-05T11:11:42.096Z,100551.49
2019-02-05T11:14:12.801Z,100548.95
2019-02-05T11:16:43.722Z,100555.45
2019-02-05T11:19:14.404Z,100555.39
2019-02-05T11:21:44.902Z,100547.74
2019-02-05T11:24:15.715Z,100549.04
2019-02-05T11:26:46.563Z,100541.42
2019-02-05T11:29:17.256Z,100541.77
2019-02-05T11:31:47.948Z,100538.41
2019-02-05T11:34:18.553Z,100538.74
2019-02-05T11:36:49.217Z,100529.48
2019-02-05T11:39:19.813Z,100523.16
2019-02-05T11:41:50.379Z,100524.55
2019-02-05T11:44:21.023Z,100516.95
2019-02-05T11:46:51.755Z,100526.13
2019-02-05T11:49:22.490Z,100528.36
2019-02-05T11:51:53.139Z,100526.94
2019-02-05T11:54:23.827Z,100521.87
2019-02-05T11:56:54.524Z,100523.70
2019-02-05T11:59:25.155Z,100524.59
2019-02-05T12:01:55.957Z,100524.38
2019-02-05T12:04:27.040Z,100521.73
2019-02-05T12:06:57.798Z,100518.78
2019-02-05T12:09:28.451Z,100515.17
2019-02-05T12:11:59.140Z,100515.30
2019-02-05T12:14:29.758Z,100516.33
2019-02-05T12:17:00.337Z,100501.04
2019-02-05T12:19:31.049Z,100508.72
2019-02-05T12:22:01.808Z,100510.08
2019-02-05T12:24:32.599Z,100497.26
2019-02-05T12:27:03.188Z,100502.89
2019-02-05T12:29:33.909Z,100496.67
2019-02-05T12:32:04.744Z,100493.96
2019-02-05T12:34:35.748Z,100487.06
2019-02-05T12:37:06.430Z,100482.13
2019-02-05T12:39:37.148Z,100489.58
2019-02-05T12:42:07.808Z,100481.19
2019-02-05T12:44:38.518Z,100486.27
2019-02-05T12:47:09.089Z,100501.70
2019-02-05T12:49:40.008Z,100487.92
2019-02-05T12:52:10.921Z,100485.70
2019-02-05T12:54:41.657Z,100479.55
2019-02-05T12:57:12.221Z,100479.94
2019-02-05T12:59:44.320Z,100474.81
2019-02-05T13:02:15.229Z,100471.30
2019-02-05T13:04:46.844Z,100489.89
2019-02-05T13:07:17.938Z,100473.34
2019-02-05T13:09:48.604Z,100472.62
2019-02-05T13:12:19.221Z,100474.64
2019-02-05T13:14:49.928Z,100477.83
2019-02-05T13:17:20.613Z,100465.64
2019-02-05T13:19:51.262Z,100479.06
2019-02-05T13:22:21.949Z,100475.81
2019-02-05T13:24:52.509Z,100487.03
2019-02-05T13:27:23.208Z,100482.75
2019-02-05T13:29:54.393Z,100491.08
2019-02-05T13:32:25.003Z,100490.84
2019-02-05T13:34:55.674Z,100484.84
2019-02-05T13:37:26.329Z,100480.85
2019-02-05T13:39:57.025Z,100479.05
2019-02-05T13:42:28.099Z,100479.87
2019-02-05T13:44:58.674Z,100482.30
2019-02-05T13:47:29.455Z,100475.23
2019-02-05T13:49:59.883Z,100475.90
2019-02-05T13:52:30.510Z,100477.69
2019-02-05T13:55:01.109Z,100480.09
2019-02-05T13:57:31.643Z,100475.88
2019-02-05T14:00:02.203Z,100477.81
2019-02-05T14:02:32.875Z,100466.28
2019-02-05T14:05:03.627Z,100474.40
2019-02-05T14:07:34.221Z,100470.81
2019-02-05T14:10:10.143Z,100466.55
2019-02-05T14:12:40.824Z,100466.91
2019-02-05T14:15:12.737Z,100465.27
2019-02-05T14:17:43.341Z,100472.62
2019-02-05T14:20:14.669Z,100469.69
2019-02-05T14:22:45.548Z,100478.55
2019-02-05T14:25:16.412Z,100471.73
2019-02-05T14:27:47.003Z,100474.87
2019-02-05T14:30:27.150Z,100478.52
2019-02-05T14:32:57.829Z,100471.25
2019-02-05T14:35:28.589Z,100472.98
2019-02-05T14:37:59.329Z,100474.59
2019-02-05T14:40:29.929Z,100475.47
2019-02-05T14:43:00.589Z,100471.75
2019-02-05T14:45:31.228Z,100479.23
2019-02-05T14:48:02.343Z,100473.88
2019-02-05T14:50:33.983Z,100470.55
2019-02-05T14:53:05.973Z,100476.84
2019-02-05T14:55:36.641Z,100475.47
2019-02-05T14:58:10.549Z,100466.61
2019-02-05T15:00:41.580Z,100470.25
2019-02-05T15:03:14.131Z,100474.84
2019-02-05T15:05:46.373Z,100476.89
2019-02-05T15:08:19.023Z,100488.59
2019-02-05T15:10:49.722Z,100484.85
2019-02-05T15:13:20.324Z,100490.48
2019-02-05T15:15:50.989Z,100492.56
2019-02-05T15:18:23.682Z,100490.84
2019-02-05T15:20:54.560Z,100497.23
2019-02-05T15:23:25.283Z,100501.58
2019-02-05T15:25:56.409Z,100502.06
2019-02-05T15:28:26.926Z,100493.64
2019-02-05T15:30:57.649Z,100492.77
2019-02-05T15:33:36.549Z,100497.72
2019-02-05T15:36:19.692Z,100495.65
2019-02-05T15:38:50.364Z,100497.67
2019-02-05T15:41:20.910Z,100493.45
2019-02-05T15:43:51.486Z,100500.51
2019-02-05T15:46:22.309Z,100495.08
2019-02-05T15:48:53.478Z,100488.34
2019-02-05T15:51:24.556Z,100488.98
2019-02-05T15:53:55.303Z,100490.10
2019-02-05T15:56:25.967Z,100498.91
2019-02-05T15:58:56.685Z,100496.41
2019-02-05T16:01:27.758Z,100505.61
2019-02-05T16:03:58.784Z,100504.33
2019-02-05T16:06:29.529Z,100507.24
2019-02-05T16:09:00.433Z,100507.60
2019-02-05T16:11:31.164Z,100506.88
2019-02-05T16:14:02.730Z,100506.95
2019-02-05T16:16:33.491Z,100510.63
2019-02-05T16:19:04.118Z,100509.34
2019-02-05T16:21:34.681Z,100511.37
2019-02-05T16:24:05.974Z,100508.69
2019-02-05T16:26:36.502Z,100504.34
2019-02-05T16:29:07.452Z,100507.98
2019-02-05T16:31:38.186Z,100517.10
2019-02-05T16:34:08.793Z,100522.56
2019-02-05T16:36:39.408Z,100529.36
2019-02-05T16:39:11.989Z,100531.00
2019-02-05T16:41:42.590Z,100533.75
2019-02-05T16:44:16.163Z,100529.85
2019-02-05T16:46:49.662Z,100531.67
2019-02-05T16:49:22.495Z,100534.28
2019-02-05T16:51:53.394Z,100536.48
2019-02-05T16:54:24.355Z,100527.91
2019-02-05T16:56:55.237Z,100531.41
2019-02-05T16:59:26.893Z,100529.97
2019-02-05T17:01:58.212Z,100526.86
2019-02-05T17:04:38.732Z,100533.45
2019-02-05T17:07:09.942Z,100530.96
2019-02-05T17:09:41.302Z,100540.99
2019-02-05T17:12:12.468Z,100542.63
2019-02-05T17:14:46.780Z,100536.61
2019-02-05T17:17:22.577Z,100543.15
2019-02-05T17:19:53.312Z,100540.46
2019-02-05T17:22:23.969Z,100540.32
2019-02-05T17:24:56.708Z,100546.69
2019-02-05T17:27:31.076Z,100545.80
2019-02-05T17:30:02.887Z,100540.67
2019-02-05T17:32:40.411Z,100544.14
2019-02-05T17:35:11.641Z,100544.66
2019-02-05T17:37:42.406Z,100547.97
2019-02-05T17:40:17.717Z,100543.59
2019-02-05T17:42:49.808Z,100533.92
2019-02-05T17:45:32.408Z,100543.39
2019-02-05T17:48:07.536Z,100545.61
2019-02-05T17:50:41.292Z,100547.97
2019-02-05T17:53:15.332Z,100556.89
2019-02-05T17:55:47.028Z,100557.80
2019-02-05T17:58:17.867Z,100553.81
2019-02-05T18:00:50.479Z,100554.72
2019-02-05T18:03:22.974Z,100556.55
2019-02-05T18:05:55.681Z,100564.39
2019-02-05T18:08:26.246Z,100558.08
2019-02-05T18:10:59.712Z,100560.42
2019-02-05T18:13:33.382Z,100564.94
2019-02-05T18:16:26.013Z,100569.55
2019-02-05T18:18:58.724Z,100569.00
2019-02-05T18:21:42.133Z,100568.42
2019-02-05T18:24:13.727Z,100569.34
2019-02-05T18:26:45.483Z,100576.41
2019-02-05T18:29:16.008Z,100588.63
2019-02-05T18:31:52.252Z,100584.30
2019-02-05T18:34:24.937Z,100583.38
2019-02-05T18:36:55.583Z,100581.38
2019-02-05T18:39:27.434Z,100585.76
2019-02-05T18:41:59.245Z,100587.75
2019-02-05T18:44:29.843Z,100586.28
2019-02-05T18:47:05.120Z,100581.78
2019-02-05T18:49:40.032Z,100587.41
2019-02-05T18:52:16.110Z,100588.50
2019-02-05T18:54:47.818Z,100590.89
2019-02-05T18:57:30.667Z,100592.33
2019-02-05T19:00:05.289Z,100591.98
2019-02-05T19:02:37.103Z,100589.62
2019-02-05T19:05:11.313Z,100598.14
2019-02-05T19:07:43.897Z,100600.89
2019-02-05T19:10:28.274Z,100603.63
2019-02-05T19:13:06.223Z,100602.72
2019-02-05T19:15:39.303Z,100609.44
2019-02-05T19:18:10.885Z,100606.55
2019-02-05T19:20:44.697Z,100608.36
2019-02-05T19:23:17.734Z,100608.02
2019-02-05T19:26:09.004Z,100607.08
2019-02-05T19:28:54.133Z,100608.91
2019-02-05T19:31:34.837Z,100608.36
2019-02-05T19:34:09.762Z,100615.27
2019-02-05T19:36:42.523Z,100609.44
2019-02-05T19:39:21.572Z,100607.64
2019-02-05T19:41:50.728Z,100621.84
2019-02-05T19:44:33.536Z,100625.64
2019-02-05T19:47:20.532Z,100623.64
2019-02-05T19:49:55.613Z,100625.66
2019-02-05T19:52:27.770Z,100628.73
2019-02-05T19:55:02.761Z,100623.11
2019-02-05T19:57:34.171Z,100623.64
2019-02-05T20:00:08.050Z,100628.20
2019-02-05T20:02:39.096Z,100629.31
2019-02-05T20:05:12.003Z,100625.84
2019-02-05T20:07:47.746Z,100624.23
2019-02-05T20:10:22.491Z,100623.67
2019-02-05T20:12:55.432Z,100626.42
2019-02-05T20:15:28.425Z,100629.50
2019-02-05T20:18:00.983Z,100627.30
2019-02-05T20:20:34.200Z,100632.23
2019-02-05T20:23:05.260Z,100638.95
2019-02-05T20:25:36.080Z,100638.25
2019-02-05T20:28:06.749Z,100640.80
2019-02-05T20:30:43.342Z,100633.84
2019-02-05T20:33:14.321Z,100629.31
2019-02-05T20:35:44.939Z,100631.69
2019-02-05T20:38:16.847Z,100631.51
2019-02-05T20:40:49.794Z,100636.60
2019-02-05T20:43:22.177Z,100636.38
2019-02-05T20:45:58.010Z,100642.77
2019-02-05T20:48:39.493Z,100643.14
2019-02-05T20:51:10.194Z,100645.30
2019-02-05T20:53:44.079Z,100635.85
2019-02-05T20:56:16.750Z,100642.39
2019-02-05T20:58:53.336Z,100637.88
2019-02-05T21:01:31.342Z,100638.25
2019-02-05T21:04:05.466Z,100627.13
2019-02-05T21:06:40.722Z,100634.23
2019-02-05T21:09:20.487Z,100643.68
2019-02-05T21:11:51.202Z,100633.12
2019-02-05T21:14:21.893Z,100632.95
2019-02-05T21:16:57.323Z,100635.50
2019-02-05T21:19:40.322Z,100640.41
2019-02-05T21:22:10.992Z,100640.20
2019-02-05T21:24:45.121Z,100640.22
2019-02-05T21:27:18.616Z,100642.59
2019-02-05T21:29:54.773Z,100646.80
2019-02-05T21:32:26.402Z,100645.86
2019-02-05T21:34:56.916Z,100640.39
2019-02-05T21:37:27.589Z,100648.22
2019-02-05T21:40:02.592Z,100645.28
2019-02-05T21:42:35.255Z,100649.50
2019-02-05T21:45:09.851Z,100649.11
2019-02-05T21:47:44.031Z,100649.85
2019-02-05T21:50:20.804Z,100647.13
2019-02-05T21:52:52.887Z,100648.75
2019-02-05T21:55:23.890Z,100646.02
2019-02-05T21:57:54.872Z,100644.77
2019-02-05T22:00:30.988Z,100646.78
2019-02-05T22:03:01.813Z,100644.92
2019-02-05T22:05:32.541Z,100647.15
2019-02-05T22:08:03.960Z,100643.87
2019-02-05T22:10:34.715Z,100646.41
2019-02-05T22:13:07.244Z,100646.26
2019-02-05T22:15:39.121Z,100652.08
2019-02-05T22:18:09.715Z,100652.09
2019-02-05T22:20:40.549Z,100647.88
2019-02-05T22:23:11.392Z,100654.23
2019-02-05T22:25:42.034Z,100644.25
2019-02-05T22:28:12.661Z,100652.08
2019-02-05T22:30:43.164Z,100649.20
2019-02-05T22:33:13.723Z,100649.70
2019-02-05T22:35:44.331Z,100646.23
2019-02-05T22:38:15.006Z,100649.72
2019-02-05T22:40:45.577Z,100655.17
2019-02-05T22:43:16.315Z,100643.34
2019-02-05T22:45:47.010Z,100650.08
2019-02-05T22:48:20.478Z,100643.91
2019-02-05T22:50:51.284Z,100644.83
2019-02-05T22:53:22.780Z,100645.00
2019-02-05T22:55:53.335Z,100642.11
2019-02-05T22:58:24.127Z,100649.39
2019-02-05T23:01:39.912Z,100635.55
2019-02-05T23:04:51.305Z,100633.86
2019-02-05T23:07:24.653Z,100634.08
2019-02-05T23:10:33.362Z,100629.17
2019-02-05T23:13:09.609Z,100639.20
2019-02-05T23:15:44.687Z,100628.08
2019-02-05T23:18:16.274Z,100628.42
2019-02-05T23:20:46.981Z,100627.14
2019-02-05T23:23:17.660Z,100619.16
2019-02-05T23:25:48.359Z,100624.12
2019-02-05T23:28:18.873Z,100619.53
2019-02-05T23:30:49.737Z,100618.08
2019-02-05T23:33:20.468Z,100620.44
2019-02-05T23:35:51.147Z,100623.33
2019-02-05T23:38:29.037Z,100628.42
2019-02-05T23:40:54.177Z,100627.88
2019-02-05T23:43:24.636Z,100633.91
2019-02-05T23:46:01.440Z,100629.71
2019-02-05T23:48:27.588Z,100634.28
2019-02-05T23:50:58.074Z,100635.20
2019-02-05T23:53:28.978Z,100628.86
2019-02-05T23:55:59.717Z,100637.39
2019-02-05T23:58:31.349Z,100628.11
